createdAt,value
2022-10-23T00:01:47.095Z,11.80
2022-10-23T00:04:15.849Z,11.80
2022-10-23T00:06:44.297Z,11.90
2022-10-23T00:09:13.660Z,11.90
2022-10-23T00:11:42.238Z,11.90
2022-10-23T00:14:11.633Z,11.90
2022-10-23T00:16:39.310Z,11.90
2022-10-23T00:19:08.596Z,11.90
2022-10-23T00:21:36.312Z,11.90
2022-10-23T00:24:04.331Z,11.80
2022-10-23T00:26:31.986Z,11.80
2022-10-23T00:28:59.642Z,11.90
2022-10-23T00:31:28.692Z,11.90
2022-10-23T00:33:56.387Z,11.80
2022-10-23T00:36:24.259Z,12.00
2022-10-23T00:38:51.956Z,11.90
2022-10-23T00:41:22.187Z,11.90
2022-10-23T00:43:57.890Z,11.80
2022-10-23T00:46:25.652Z,11.80
2022-10-23T00:48:54.710Z,11.80
2022-10-23T00:51:22.519Z,11.80
2022-10-23T00:54:01.097Z,11.70
2022-10-23T00:56:40.356Z,11.70
2022-10-23T00:59:08.022Z,11.60
2022-10-23T01:01:35.845Z,11.70
2022-10-23T01:04:05.878Z,11.80
2022-10-23T01:06:36.355Z,11.80
2022-10-23T01:09:07.200Z,11.70
2022-10-23T01:11:40.040Z,11.80
2022-10-23T01:14:12.965Z,11.70
2022-10-23T01:16:43.177Z,11.80
2022-10-23T01:19:14.606Z,12.00
2022-10-23T01:21:49.429Z,11.90
2022-10-23T01:24:23.351Z,11.90
2022-10-23T01:26:58.251Z,11.70
2022-10-23T01:29:29.995Z,11.80
2022-10-23T01:31:59.503Z,11.90
2022-10-23T01:34:30.704Z,11.80
2022-10-23T01:37:00.204Z,11.80
2022-10-23T01:39:30.622Z,11.90
2022-10-23T01:42:00.479Z,11.90
2022-10-23T01:44:32.360Z,11.90
2022-10-23T01:47:00.268Z,11.90
2022-10-23T01:49:28.738Z,11.80
2022-10-23T01:51:58.308Z,11.80
2022-10-23T01:54:27.267Z,11.80
2022-10-23T01:56:55.449Z,11.80
2022-10-23T01:59:25.139Z,11.80
2022-10-23T02:01:57.331Z,11.70
2022-10-23T02:04:28.451Z,11.70
2022-10-23T02:06:56.262Z,11.70
2022-10-23T02:09:24.081Z,11.60
2022-10-23T02:11:54.553Z,11.70
2022-10-23T02:14:28.455Z,11.60
2022-10-23T02:17:00.639Z,11.50
2022-10-23T02:19:30.600Z,11.60
2022-10-23T02:22:04.300Z,11.60
2022-10-23T02:24:34.428Z,11.70
2022-10-23T02:27:03.661Z,11.70
2022-10-23T02:29:33.820Z,11.60
2022-10-23T02:32:03.135Z,11.60
2022-10-23T02:34:30.831Z,11.70
2022-10-23T02:36:58.585Z,11.60
2022-10-23T02:39:27.789Z,11.60
2022-10-23T02:41:57.848Z,11.60
2022-10-23T02:44:29.150Z,11.60
2022-10-23T02:47:01.217Z,11.50
2022-10-23T02:49:35.328Z,11.50
2022-10-23T02:52:07.919Z,11.50
2022-10-23T02:54:44.305Z,11.40
2022-10-23T02:57:16.907Z,11.30
2022-10-23T02:59:45.803Z,11.20
2022-10-23T03:02:18.110Z,11.20
2022-10-23T03:04:47.835Z,11.30
2022-10-23T03:07:16.105Z,11.20
2022-10-23T03:09:43.937Z,11.20
2022-10-23T03:12:12.124Z,11.30
2022-10-23T03:14:39.875Z,11.30
2022-10-23T03:17:07.508Z,11.20
2022-10-23T03:19:35.185Z,11.10
2022-10-23T03:22:04.218Z,11.10
2022-10-23T03:24:31.869Z,11.00
2022-10-23T03:26:59.549Z,11.10
2022-10-23T03:29:27.253Z,11.10
2022-10-23T03:31:55.576Z,11.10
2022-10-23T03:34:23.261Z,11.40
2022-10-23T03:36:50.980Z,11.50
2022-10-23T03:39:20.027Z,11.50
2022-10-23T03:41:47.717Z,11.50
2022-10-23T03:44:15.419Z,11.40
2022-10-23T03:46:43.107Z,11.40
2022-10-23T03:49:10.777Z,11.30
2022-10-23T03:51:41.534Z,11.40
2022-10-23T03:54:09.550Z,11.30
2022-10-23T03:56:38.589Z,11.30
2022-10-23T03:59:06.265Z,11.30
2022-10-23T04:01:34.036Z,11.30
2022-10-23T04:04:01.838Z,11.30
2022-10-23T04:06:29.498Z,11.30
2022-10-23T04:08:57.397Z,11.40
2022-10-23T04:11:25.048Z,11.40
2022-10-23T04:13:54.205Z,11.40
2022-10-23T04:16:22.147Z,11.40
2022-10-23T04:18:49.816Z,11.40
2022-10-23T04:21:17.546Z,11.40
2022-10-23T04:23:45.461Z,11.40
2022-10-23T04:26:13.395Z,11.30
2022-10-23T04:28:41.066Z,11.30
2022-10-23T04:31:10.098Z,11.30
2022-10-23T04:33:37.784Z,11.30
2022-10-23T04:36:05.823Z,11.30
2022-10-23T04:38:33.446Z,11.20
2022-10-23T04:41:01.188Z,11.20
2022-10-23T04:43:28.858Z,11.10
2022-10-23T04:45:56.826Z,11.20
2022-10-23T04:48:28.454Z,11.20
2022-10-23T04:50:58.376Z,11.10
2022-10-23T04:53:26.245Z,11.20
2022-10-23T04:55:54.579Z,11.20
2022-10-23T04:58:25.677Z,11.20
2022-10-23T05:00:53.404Z,11.30
2022-10-23T05:03:21.576Z,11.20
2022-10-23T05:05:52.850Z,11.20
2022-10-23T05:08:20.523Z,11.20
2022-10-23T05:10:48.756Z,11.20
2022-10-23T05:13:16.803Z,11.10
2022-10-23T05:15:44.503Z,11.10
2022-10-23T05:18:14.217Z,11.20
2022-10-23T05:20:42.242Z,11.10
2022-10-23T05:23:15.661Z,11.00
2022-10-23T05:25:43.413Z,11.10
2022-10-23T05:28:11.185Z,11.10
2022-10-23T05:30:39.643Z,11.00
2022-10-23T05:33:07.572Z,11.00
2022-10-23T05:35:35.351Z,11.10
2022-10-23T05:38:03.164Z,11.10
2022-10-23T05:40:32.356Z,11.10
2022-10-23T05:43:00.123Z,11.10
2022-10-23T05:45:27.817Z,11.20
2022-10-23T05:48:05.627Z,11.10
2022-10-23T05:50:43.105Z,11.10
2022-10-23T05:53:11.171Z,11.10
2022-10-23T05:55:40.197Z,11.00
2022-10-23T05:58:07.861Z,11.10
2022-10-23T06:00:35.535Z,11.00
2022-10-23T06:03:03.404Z,11.00
2022-10-23T06:05:31.127Z,11.00
2022-10-23T06:08:01.889Z,11.00
2022-10-23T06:10:29.645Z,11.00
2022-10-23T06:12:58.673Z,11.10
2022-10-23T06:15:26.954Z,11.10
2022-10-23T06:17:54.624Z,11.20
2022-10-23T06:20:25.316Z,11.10
2022-10-23T06:22:55.671Z,11.20
2022-10-23T06:25:23.350Z,11.10
2022-10-23T06:27:51.898Z,11.20
2022-10-23T06:30:20.940Z,11.10
2022-10-23T06:32:48.677Z,11.20
2022-10-23T06:35:16.445Z,11.20
2022-10-23T06:37:44.096Z,11.20
2022-10-23T06:40:11.939Z,11.30
2022-10-23T06:42:39.677Z,11.20
2022-10-23T06:45:07.919Z,11.30
2022-10-23T06:47:39.359Z,11.30
2022-10-23T06:50:10.552Z,11.30
2022-10-23T06:52:47.108Z,11.40
2022-10-23T06:55:15.562Z,11.40
2022-10-23T06:57:43.450Z,11.40
2022-10-23T07:00:12.131Z,11.40
2022-10-23T07:02:41.376Z,11.50
2022-10-23T07:05:12.764Z,11.60
2022-10-23T07:07:41.550Z,11.60
2022-10-23T07:10:09.448Z,11.60
2022-10-23T07:12:37.306Z,11.70
2022-10-23T07:15:05.404Z,11.70
2022-10-23T07:17:33.092Z,11.70
2022-10-23T07:20:02.134Z,11.80
2022-10-23T07:22:29.860Z,11.80
2022-10-23T07:24:57.516Z,11.90
2022-10-23T07:27:25.915Z,12.00
2022-10-23T07:29:53.834Z,12.00
2022-10-23T07:32:23.833Z,12.00
2022-10-23T07:34:51.499Z,12.10
2022-10-23T07:37:20.511Z,12.10
2022-10-23T07:39:48.289Z,12.10
2022-10-23T07:42:15.991Z,12.20
2022-10-23T07:44:43.852Z,12.20
2022-10-23T07:47:11.510Z,12.30
2022-10-23T07:49:39.188Z,12.30
2022-10-23T07:52:07.351Z,12.40
2022-10-23T07:54:36.425Z,12.40
2022-10-23T07:57:04.234Z,12.40
2022-10-23T07:59:35.830Z,12.50
2022-10-23T08:02:05.827Z,12.50
2022-10-23T08:04:33.519Z,12.60
2022-10-23T08:07:01.585Z,12.60
2022-10-23T08:09:29.236Z,12.60
2022-10-23T08:11:58.286Z,12.70
2022-10-23T08:14:25.946Z,12.70
2022-10-23T08:16:53.654Z,12.70
2022-10-23T08:19:21.371Z,12.80
2022-10-23T08:21:49.093Z,12.80
2022-10-23T08:24:16.782Z,12.90
2022-10-23T08:26:44.440Z,12.90
2022-10-23T08:29:13.462Z,12.90
2022-10-23T08:31:41.123Z,13.00
2022-10-23T08:34:08.859Z,13.00
2022-10-23T08:36:36.582Z,13.10
2022-10-23T08:39:04.485Z,13.10
2022-10-23T08:41:34.196Z,13.20
2022-10-23T08:44:06.090Z,13.20
2022-10-23T08:46:38.525Z,13.30
2022-10-23T08:49:13.369Z,13.30
2022-10-23T08:51:43.765Z,13.40
2022-10-23T08:54:15.274Z,13.40
2022-10-23T08:56:44.017Z,13.40
2022-10-23T08:59:15.108Z,13.50
2022-10-23T09:01:47.238Z,13.60
2022-10-23T09:04:15.876Z,13.60
2022-10-23T09:06:49.239Z,13.70
2022-10-23T09:09:34.520Z,13.70
2022-10-23T09:12:06.082Z,13.80
2022-10-23T09:14:41.979Z,13.80
2022-10-23T09:17:17.371Z,13.90
2022-10-23T09:19:45.690Z,13.90
2022-10-23T09:22:14.343Z,13.90
2022-10-23T09:24:43.963Z,14.00
2022-10-23T09:27:15.545Z,13.90
2022-10-23T09:29:48.239Z,14.10
2022-10-23T09:32:17.317Z,14.10
2022-10-23T09:34:52.269Z,14.10
2022-10-23T09:37:22.955Z,14.20
2022-10-23T09:39:50.904Z,14.20
2022-10-23T09:42:23.038Z,14.30
2022-10-23T09:44:51.906Z,14.30
2022-10-23T09:47:22.683Z,14.40
2022-10-23T09:49:51.523Z,14.40
2022-10-23T09:52:26.547Z,14.40
2022-10-23T09:54:55.513Z,14.50
2022-10-23T09:57:24.509Z,14.60
2022-10-23T09:59:53.093Z,14.60
2022-10-23T10:02:27.942Z,14.70
2022-10-23T10:04:55.789Z,14.70
2022-10-23T10:07:24.345Z,14.80
2022-10-23T10:09:53.383Z,14.80
2022-10-23T10:12:28.627Z,14.90
2022-10-23T10:14:59.856Z,14.90
2022-10-23T10:17:35.435Z,14.90
2022-10-23T10:20:07.803Z,14.90
2022-10-23T10:22:38.332Z,15.00
2022-10-23T10:25:09.905Z,15.00
2022-10-23T10:27:44.850Z,15.10
2022-10-23T10:30:15.146Z,15.10
2022-10-23T10:32:46.441Z,15.20
2022-10-23T10:35:20.955Z,15.20
2022-10-23T10:37:56.278Z,15.20
2022-10-23T10:40:26.950Z,15.20
2022-10-23T10:43:17.567Z,15.30
2022-10-23T10:45:47.821Z,15.30
2022-10-23T10:48:21.834Z,15.30
2022-10-23T10:50:51.930Z,15.40
2022-10-23T10:53:24.330Z,15.40
2022-10-23T10:55:53.099Z,15.50
2022-10-23T10:58:25.110Z,15.50
2022-10-23T11:00:55.566Z,15.50
2022-10-23T11:03:29.069Z,15.50
2022-10-23T11:08:44.520Z,15.60
2022-10-23T11:11:25.631Z,15.60
2022-10-23T11:13:54.033Z,15.70
2022-10-23T11:16:23.638Z,15.70
2022-10-23T11:18:57.170Z,15.70
2022-10-23T11:21:29.979Z,15.70
2022-10-23T11:24:12.576Z,15.70
2022-10-23T11:26:46.752Z,15.70
2022-10-23T11:29:23.912Z,15.80
2022-10-23T11:31:57.444Z,15.80
2022-10-23T11:34:40.919Z,15.80
2022-10-23T11:37:09.087Z,15.90
2022-10-23T11:39:38.053Z,16.00
2022-10-23T11:42:14.589Z,16.00
2022-10-23T11:44:43.676Z,16.00
2022-10-23T11:47:36.426Z,16.10
2022-10-23T11:50:25.692Z,16.10
2022-10-23T11:53:13.380Z,16.10
2022-10-23T11:55:56.939Z,16.20
2022-10-23T11:58:31.311Z,16.20
2022-10-23T12:01:04.515Z,16.30
2022-10-23T12:03:39.707Z,16.40
2022-10-23T12:06:17.059Z,16.40
2022-10-23T12:08:44.809Z,16.50
2022-10-23T12:11:30.659Z,16.50
2022-10-23T12:13:58.340Z,16.50
2022-10-23T12:16:35.411Z,16.60
2022-10-23T12:19:12.713Z,16.50
2022-10-23T12:21:42.060Z,16.60
2022-10-23T12:24:27.476Z,16.60
2022-10-23T12:27:05.605Z,16.60
2022-10-23T12:29:40.863Z,16.60
2022-10-23T12:32:18.169Z,16.60
2022-10-23T12:34:50.889Z,16.60
2022-10-23T12:37:30.069Z,16.60
2022-10-23T12:39:57.789Z,16.70
2022-10-23T12:42:26.545Z,16.70
2022-10-23T12:45:00.805Z,16.80
2022-10-23T12:47:29.386Z,16.70
2022-10-23T12:49:57.211Z,16.70
2022-10-23T12:52:25.535Z,16.80
2022-10-23T12:54:54.560Z,16.90
2022-10-23T12:57:23.816Z,16.80
2022-10-23T12:59:52.550Z,16.90
2022-10-23T13:02:24.385Z,17.00
2022-10-23T13:04:53.464Z,17.00
2022-10-23T13:07:22.328Z,17.00
2022-10-23T13:09:50.123Z,17.00
2022-10-23T13:12:22.340Z,17.10
2022-10-23T13:14:58.286Z,17.10
2022-10-23T13:17:34.532Z,17.10
2022-10-23T13:20:09.614Z,17.10
2022-10-23T13:22:37.331Z,17.20
2022-10-23T13:25:20.691Z,17.20
2022-10-23T13:27:49.807Z,17.20
2022-10-23T13:30:31.059Z,17.20
2022-10-23T13:32:59.700Z,17.20
2022-10-23T13:35:27.701Z,17.10
2022-10-23T13:37:55.639Z,17.10
2022-10-23T13:40:24.951Z,17.10
2022-10-23T13:42:54.958Z,17.10
2022-10-23T13:45:23.364Z,17.10
2022-10-23T13:47:51.484Z,17.10
2022-10-23T13:50:19.549Z,17.10
2022-10-23T13:52:47.324Z,17.10
2022-10-23T13:55:18.562Z,17.10
2022-10-23T13:57:46.392Z,17.10
2022-10-23T14:00:16.208Z,17.10
2022-10-23T14:02:44.223Z,17.10
2022-10-23T14:05:12.669Z,17.10
2022-10-23T14:07:40.448Z,17.10
2022-10-23T14:10:08.465Z,17.10
2022-10-23T14:12:40.007Z,17.10
2022-10-23T14:15:08.283Z,17.10
2022-10-23T14:17:37.369Z,17.10
2022-10-23T14:20:06.290Z,17.10
2022-10-23T14:22:34.317Z,17.10
2022-10-23T14:25:01.956Z,17.10
2022-10-23T14:27:30.487Z,17.10
2022-10-23T14:29:59.265Z,17.10
2022-10-23T14:32:26.962Z,17.10
2022-10-23T14:34:56.043Z,17.00
2022-10-23T14:37:23.767Z,17.00
2022-10-23T14:39:51.467Z,17.00
2022-10-23T14:42:19.197Z,17.00
2022-10-23T14:44:49.373Z,17.00
2022-10-23T14:47:17.080Z,17.00
2022-10-23T14:49:45.761Z,17.00
2022-10-23T14:52:14.882Z,17.00
2022-10-23T14:54:42.548Z,17.00
2022-10-23T14:57:10.539Z,16.90
2022-10-23T14:59:38.413Z,16.90
2022-10-23T15:02:06.054Z,16.90
2022-10-23T15:04:33.761Z,16.90
2022-10-23T15:07:01.442Z,16.90
2022-10-23T15:09:32.641Z,16.90
2022-10-23T15:12:00.310Z,16.80
2022-10-23T15:14:27.963Z,16.80
2022-10-23T15:16:55.589Z,16.80
2022-10-23T15:19:23.375Z,16.80
2022-10-23T15:21:51.505Z,16.80
2022-10-23T15:24:20.636Z,16.70
2022-10-23T15:26:51.473Z,16.70
2022-10-23T15:29:19.870Z,16.70
2022-10-23T15:31:48.964Z,16.70
2022-10-23T15:34:17.732Z,16.70
2022-10-23T15:36:47.019Z,16.70
2022-10-23T15:39:16.170Z,16.70
2022-10-23T15:41:43.938Z,16.70
2022-10-23T15:44:14.520Z,16.70
2022-10-23T15:46:42.259Z,16.60
2022-10-23T15:49:10.127Z,16.60
2022-10-23T15:51:38.384Z,16.60
2022-10-23T15:54:06.483Z,16.60
2022-10-23T15:56:34.567Z,16.60
2022-10-23T15:59:02.534Z,16.60
2022-10-23T16:01:31.661Z,16.60
2022-10-23T16:03:59.415Z,16.50
2022-10-23T16:06:27.213Z,16.50
2022-10-23T16:08:55.176Z,16.50
2022-10-23T16:11:23.747Z,16.50
2022-10-23T16:13:51.856Z,16.50
2022-10-23T16:16:19.602Z,16.50
2022-10-23T16:18:49.160Z,16.50
2022-10-23T16:21:18.420Z,16.50
2022-10-23T16:23:46.081Z,16.40
2022-10-23T16:26:13.865Z,16.40
2022-10-23T16:28:43.777Z,16.40
2022-10-23T16:31:14.451Z,16.40
2022-10-23T16:33:45.436Z,16.30
2022-10-23T16:36:14.466Z,16.40
2022-10-23T16:38:42.186Z,16.40
2022-10-23T16:41:09.849Z,16.30
2022-10-23T16:43:37.743Z,16.30
2022-10-23T16:46:06.404Z,16.20
2022-10-23T16:48:34.447Z,16.20
2022-10-23T16:51:05.423Z,16.20
2022-10-23T16:53:34.492Z,16.20
2022-10-23T16:56:04.243Z,16.10
2022-10-23T16:58:31.924Z,16.10
2022-10-23T17:01:00.625Z,16.10
2022-10-23T17:03:28.485Z,16.10
2022-10-23T17:06:01.567Z,16.10
2022-10-23T17:08:29.962Z,16.00
2022-10-23T17:11:06.606Z,16.00
2022-10-23T17:13:34.342Z,16.00
2022-10-23T17:16:06.089Z,16.00
2022-10-23T17:18:33.890Z,16.00
2022-10-23T17:21:01.754Z,15.90
2022-10-23T17:23:29.579Z,15.90
2022-10-23T17:25:57.787Z,15.90
2022-10-23T17:28:27.348Z,15.90
2022-10-23T17:30:55.111Z,15.90
2022-10-23T17:33:22.761Z,15.90
2022-10-23T17:35:50.586Z,15.90
2022-10-23T17:38:19.124Z,15.80
2022-10-23T17:40:47.268Z,15.80
2022-10-23T17:43:15.973Z,15.80
2022-10-23T17:45:46.087Z,15.80
2022-10-23T17:48:13.900Z,15.80
2022-10-23T17:50:41.809Z,15.70
2022-10-23T17:53:09.829Z,15.70
2022-10-23T17:55:40.833Z,15.70
2022-10-23T17:58:08.800Z,15.70
2022-10-23T18:00:36.865Z,15.60
2022-10-23T18:03:06.002Z,15.60
2022-10-23T18:05:33.860Z,15.60
2022-10-23T18:08:01.644Z,15.60
2022-10-23T18:10:29.309Z,15.60
2022-10-23T18:12:56.950Z,15.60
2022-10-23T18:15:24.613Z,15.60
2022-10-23T18:17:52.283Z,15.60
2022-10-23T18:20:21.320Z,15.60
2022-10-23T18:22:49.307Z,15.50
2022-10-23T18:25:17.366Z,15.50
2022-10-23T18:27:45.053Z,15.50
2022-10-23T18:30:13.393Z,15.50
2022-10-23T18:32:41.236Z,15.50
2022-10-23T18:35:09.375Z,15.50
2022-10-23T18:37:41.524Z,15.50
2022-10-23T18:40:09.896Z,15.50
2022-10-23T18:42:37.559Z,15.50
2022-10-23T18:45:05.499Z,15.50
2022-10-23T18:47:36.159Z,15.60
2022-10-23T18:50:04.080Z,15.50
2022-10-23T18:52:31.773Z,15.60
2022-10-23T18:55:00.913Z,15.60
2022-10-23T18:57:28.617Z,15.60
2022-10-23T18:59:56.805Z,15.60
2022-10-23T19:02:24.618Z,15.60
2022-10-23T19:04:52.453Z,15.60
2022-10-23T19:07:20.158Z,15.60
2022-10-23T19:09:48.133Z,15.60
2022-10-23T19:12:17.678Z,15.60
2022-10-23T19:14:45.354Z,15.60
2022-10-23T19:17:14.860Z,15.60
2022-10-23T19:19:44.753Z,15.60
2022-10-23T19:22:13.070Z,15.60
2022-10-23T19:24:42.228Z,15.50
2022-10-23T19:27:10.401Z,15.50
2022-10-23T19:29:43.649Z,15.50
2022-10-23T19:32:11.604Z,15.40
2022-10-23T19:34:39.283Z,15.50
2022-10-23T19:37:07.024Z,15.50
2022-10-23T19:39:34.744Z,15.50
2022-10-23T19:42:02.432Z,15.40
2022-10-23T19:44:30.111Z,15.40
2022-10-23T19:46:59.114Z,15.40
2022-10-23T19:49:26.785Z,15.40
2022-10-23T19:51:54.439Z,15.40
2022-10-23T19:54:22.423Z,15.40
2022-10-23T19:56:50.456Z,15.40
2022-10-23T19:59:18.224Z,15.40
2022-10-23T20:01:48.000Z,15.40
2022-10-23T20:04:18.540Z,15.40
2022-10-23T20:06:46.527Z,15.40
2022-10-23T20:09:14.191Z,15.40
2022-10-23T20:11:41.993Z,15.40
2022-10-23T20:14:09.794Z,15.40
2022-10-23T20:16:38.542Z,15.40
2022-10-23T20:19:07.848Z,15.40
2022-10-23T20:21:37.356Z,15.40
2022-10-23T20:24:05.178Z,15.40
2022-10-23T20:26:33.308Z,15.40
2022-10-23T20:29:00.986Z,15.40
2022-10-23T20:31:28.711Z,15.40
2022-10-23T20:33:56.970Z,15.40
2022-10-23T20:36:27.179Z,15.30
2022-10-23T20:38:56.853Z,15.30
2022-10-23T20:41:27.029Z,15.30
2022-10-23T20:43:55.816Z,15.30
2022-10-23T20:46:23.766Z,15.30
2022-10-23T20:48:51.503Z,15.30
2022-10-23T20:51:20.436Z,15.30
2022-10-23T20:53:48.459Z,15.30
2022-10-23T20:56:18.350Z,15.30
2022-10-23T20:58:46.190Z,15.30
2022-10-23T21:01:16.357Z,15.30
2022-10-23T21:03:44.501Z,15.30
2022-10-23T21:06:13.365Z,15.30
2022-10-23T21:08:41.233Z,15.30
2022-10-23T21:11:11.718Z,15.30
2022-10-23T21:13:41.067Z,15.30
2022-10-23T21:16:12.793Z,15.30
2022-10-23T21:18:45.930Z,15.30
2022-10-23T21:21:14.295Z,15.30
2022-10-23T21:23:41.963Z,15.30
2022-10-23T21:26:09.658Z,15.30
2022-10-23T21:28:37.293Z,15.20
2022-10-23T21:31:06.917Z,15.20
2022-10-23T21:33:35.001Z,15.20
2022-10-23T21:36:18.729Z,15.20
2022-10-23T21:38:46.808Z,15.20
2022-10-23T21:41:15.370Z,15.10
2022-10-23T21:43:43.159Z,15.10
2022-10-23T21:46:12.985Z,15.10
2022-10-23T21:48:41.022Z,15.10
2022-10-23T21:51:12.912Z,15.00
2022-10-23T21:53:40.544Z,15.10
2022-10-23T21:56:11.579Z,15.10
2022-10-23T21:58:39.243Z,15.10
2022-10-23T22:01:07.062Z,15.10
2022-10-23T22:03:36.252Z,15.10
2022-10-23T22:06:03.922Z,15.10
2022-10-23T22:08:31.865Z,15.00
2022-10-23T22:10:59.494Z,14.90
2022-10-23T22:13:27.262Z,14.90
2022-10-23T22:15:54.939Z,14.90
2022-10-23T22:18:22.591Z,14.90
2022-10-23T22:20:51.674Z,14.90
2022-10-23T22:23:19.769Z,14.90
2022-10-23T22:25:47.500Z,14.90
2022-10-23T22:28:15.234Z,14.80
2022-10-23T22:30:42.886Z,14.80
2022-10-23T22:33:10.784Z,14.80
2022-10-23T22:35:38.855Z,14.70
2022-10-23T22:38:07.834Z,14.70
2022-10-23T22:40:36.984Z,14.70
2022-10-23T22:43:04.737Z,14.70
2022-10-23T22:45:32.405Z,14.70
2022-10-23T22:48:00.054Z,14.70
2022-10-23T22:50:27.754Z,14.70
2022-10-23T22:52:55.444Z,14.70
2022-10-23T22:55:24.447Z,14.70
2022-10-23T22:57:52.349Z,14.60
2022-10-23T23:00:20.038Z,14.60
2022-10-23T23:02:47.784Z,14.60
2022-10-23T23:05:15.598Z,14.60
2022-10-23T23:07:43.639Z,14.60
2022-10-23T23:10:11.490Z,14.50
2022-10-23T23:12:40.543Z,14.50
2022-10-23T23:15:08.827Z,14.50
2022-10-23T23:17:36.484Z,14.50
2022-10-23T23:20:04.620Z,14.50
2022-10-23T23:22:32.287Z,14.50
2022-10-23T23:24:59.979Z,14.50
2022-10-23T23:27:28.140Z,14.50
2022-10-23T23:29:58.796Z,14.40
2022-10-23T23:32:26.448Z,14.40
2022-10-23T23:34:54.127Z,14.30
2022-10-23T23:37:21.781Z,14.40
2022-10-23T23:39:49.414Z,14.40
2022-10-23T23:42:17.442Z,14.40
2022-10-23T23:44:55.808Z,14.30
2022-10-23T23:47:31.608Z,14.30
2022-10-23T23:49:59.288Z,14.30
2022-10-23T23:52:26.924Z,14.20
2022-10-23T23:54:54.559Z,14.10
2022-10-23T23:57:22.207Z,14.20
2022-10-23T23:59:49.848Z,14.20
